| time (UTC) | temp C | wind direction | speed KPH | gust KPH | rain 1hr cm | rain 24hr cm | rain mn cm | humidity % | barometer mb |
| 20260905233045 | 31 | 319 | 1.6 | 12.9 | 0.00 | 0.00 | 0.00 | 67 | 1009.7 |
| 20260905232546 | 31 | 209 | 1.6 | 12.9 | 0.00 | 0.00 | 0.00 | 67 | 1009.1 |
| 20260905232044 | 31 | 199 | 1.6 | 12.9 | 0.00 | 0.00 | 0.00 | 67 | 1009.0 |
| 20260905231544 | 31 | 267 | 3.2 | 12.9 | 0.00 | 0.00 | 0.00 | 68 | 1009.2 |
| 20260905231042 | 31 | 268 | 3.2 | 12.9 | 0.00 | 0.00 | 0.00 | 68 | 1009.1 |
| 20260905230043 | 31 | 223 | 3.2 | 14.5 | 0.00 | 0.00 | 0.00 | 66 | 1009.2 |
| 20260905225540 | 31 | 280 | 3.2 | 14.5 | 0.00 | 0.00 | 0.00 | 66 | 1009.2 |
| 20260905225041 | 31 | 291 | 1.6 | 11.3 | 0.00 | 0.00 | 0.00 | 66 | 1009.2 |
| 20260905224538 | 31 | 286 | 3.2 | 12.9 | 0.00 | 0.00 | 0.00 | 66 | 1009.1 |
| 20260905224038 | 32 | 242 | 4.8 | 17.7 | 0.00 | 0.00 | 0.00 | 65 | 1009.2 |
| 20260905223536 | 32 | 236 | 4.8 | 17.7 | 0.00 | 0.00 | 0.00 | 64 | 1009.3 |
| 20260905223038 | 32 | 254 | 3.2 | 12.9 | 0.00 | 0.00 | 0.00 | 63 | 1009.2 |
| 20260905222537 | 32 | 249 | 3.2 | 16.1 | 0.00 | 0.00 | 0.00 | 63 | 1009.1 |
| 20260905222038 | 33 | 271 | 4.8 | 16.1 | 0.00 | 0.00 | 0.00 | 62 | 1008.9 |
| 20260905221536 | 33 | 240 | 6.4 | 20.9 | 0.00 | 0.00 | 0.00 | 61 | 1009.0 |
| 20260905221036 | 33 | 271 | 6.4 | 20.9 | 0.00 | 0.00 | 0.00 | 59 | 1009.0 |
| 20260905220536 | 34 | 230 | 3.2 | 17.7 | 0.00 | 0.00 | 0.00 | 58 | 1008.9 |
| 20260905220036 | 33 | 218 | 4.8 | 17.7 | 0.00 | 0.00 | 0.00 | 60 | 1008.7 |
| 20260905215537 | 34 | 236 | 6.4 | 20.9 | 0.00 | 0.00 | 0.00 | 58 | 1008.7 |
| 20260905215036 | 34 | 268 | 4.8 | 20.9 | 0.00 | 0.00 | 0.00 | 58 | 1008.6 |
| 20260905214536 | 34 | 216 | 4.8 | 16.1 | 0.00 | 0.00 | 0.00 | 57 | 1008.6 |
| 20260905214035 | 34 | 246 | 6.4 | 16.1 | 0.00 | 0.00 | 0.00 | 57 | 1008.6 |
| 20260905213536 | 34 | 270 | 6.4 | 17.7 | 0.00 | 0.00 | 0.00 | 58 | 1008.7 |
| 20260905213037 | 34 | 272 | 6.4 | 17.7 | 0.00 | 0.00 | 0.00 | 57 | 1008.6 |
| 20260905212034 | 34 | 250 | 3.2 | 14.5 | 0.00 | 0.00 | 0.00 | 57 | 1008.7 |
| 20260905211534 | 34 | 233 | 1.6 | 16.1 | 0.00 | 0.00 | 0.00 | 58 | 1008.7 |
| 20260905211033 | 34 | 211 | 1.6 | 16.1 | 0.00 | 0.00 | 0.00 | 57 | 1008.7 |
| 20260905210535 | 35 | 197 | 4.8 | 17.7 | 0.00 | 0.00 | 0.00 | 56 | 1008.6 |
| 20260905210034 | 35 | 264 | 4.8 | 17.7 | 0.00 | 0.00 | 0.00 | 53 | 1008.6 |
| 20260905205535 | 36 | 215 | 1.6 | 17.7 | 0.00 | 0.00 | 0.00 | 50 | 1008.6 |
| 20260905205035 | 37 | 133 | 0.0 | 8.0 | 0.00 | 0.00 | 0.00 | 44 | 1008.6 |
| 20260905204534 | 37 | 142 | 1.6 | 9.7 | 0.00 | 0.00 | 0.00 | 42 | 1008.7 |
| 20260905204034 | 37 | 205 | 1.6 | 9.7 | 0.00 | 0.00 | 0.00 | 42 | 1008.8 |
| 20260905203535 | 37 | 272 | 1.6 | 9.7 | 0.00 | 0.00 | 0.00 | 43 | 1008.8 |
| 20260905203034 | 37 | 272 | 3.2 | 11.3 | 0.00 | 0.00 | 0.00 | 43 | 1008.9 |
| 20260905202533 | 37 | 254 | 1.6 | 11.3 | 0.00 | 0.00 | 0.00 | 42 | 1008.9 |
| 20260905202034 | 37 | 261 | 0.0 | 6.4 | 0.00 | 0.00 | 0.00 | 42 | 1009.0 |
| 20260905201533 | 37 | 195 | 1.6 | 11.3 | 0.00 | 0.00 | 0.00 | 45 | 1009.0 |
| 20260905201032 | 37 | 80 | 1.6 | 11.3 | 0.00 | 0.00 | 0.00 | 43 | 1009.1 |
| 20260905200531 | 37 | 129 | 1.6 | 8.0 | 0.00 | 0.00 | 0.00 | 43 | 1009.5 |
| 20260905200032 | 37 | 145 | 1.6 | 8.0 | 0.00 | 0.00 | 0.00 | 43 | 1009.5 |
| 20260905195032 | 37 | 294 | 0.0 | 1.6 | 0.00 | 0.00 | 0.00 | 44 | 1009.7 |
| 20260905194530 | 37 | 269 | 0.0 | 9.7 | 0.00 | 0.00 | 0.00 | 44 | 1009.8 |
| 20260905194030 | 37 | 266 | 0.0 | 9.7 | 0.00 | 0.00 | 0.00 | 42 | 1009.8 |
| 20260905193530 | 37 | 249 | 0.0 | 4.8 | 0.00 | 0.00 | 0.00 | 42 | 1009.9 |
| 20260905193028 | 37 | 250 | 1.6 | 4.8 | 0.00 | 0.00 | 0.00 | 41 | 1010.0 |
| 20260905192528 | 37 | 250 | 0.0 | 4.8 | 0.00 | 0.00 | 0.00 | 41 | 1010.0 |
| 20260905192027 | 37 | 192 | 0.0 | 1.6 | 0.00 | 0.00 | 0.00 | 43 | 1010.0 |
| 20260905191528 | 37 | 109 | 0.0 | 1.6 | 0.00 | 0.00 | 0.00 | 44 | 1010.0 |
| 20260905191027 | 37 | 88 | 0.0 | 4.8 | 0.00 | 0.00 | 0.00 | 43 | 1010.0 |
| 20260905190527 | 37 | 89 | 0.0 | 4.8 | 0.00 | 0.00 | 0.00 | 42 | 1010.1 |
| 20260905190028 | 37 | 148 | 0.0 | 4.8 | 0.00 | 0.00 | 0.00 | 43 | 1010.1 |
| 20260905185028 | 36 | 44 | 0.0 | 3.2 | 0.00 | 0.00 | 0.00 | 44 | 1010.0 |
| 20260905184528 | 36 | 46 | 0.0 | 0.0 | 0.00 | 0.00 | 0.00 | 45 | 1010.1 |
| 20260905184028 | 36 | 45 | 0.0 | 0.0 | 0.00 | 0.00 | 0.00 | 45 | 1010.2 |
| 20260905183027 | 36 | 139 | 0.0 | 1.6 | 0.00 | 0.00 | 0.00 | 46 | 1010.5 |
| 20260905182528 | 36 | 142 | 0.0 | 1.6 | 0.00 | 0.00 | 0.00 | 45 | 1010.6 |
| 20260905182028 | 36 | 174 | 1.6 | 11.3 | 0.00 | 0.00 | 0.00 | 45 | 1010.7 |
| 20260905181528 | 36 | 215 | 1.6 | 11.3 | 0.00 | 0.00 | 0.00 | 45 | 1010.7 |
| 20260905181026 | 36 | 12 | 0.0 | 11.3 | 0.00 | 0.00 | 0.00 | 44 | 1010.7 |
| 20260905180026 | 37 | 125 | 0.0 | 8.0 | 0.00 | 0.00 | 0.00 | 43 | 1010.8 |
| 20260905175525 | 36 | 92 | 3.2 | 14.5 | 0.00 | 0.00 | 0.00 | 44 | 1010.8 |
| 20260905175026 | 36 | 136 | 3.2 | 14.5 | 0.00 | 0.00 | 0.00 | 45 | 1010.9 |
| 20260905174525 | 36 | 141 | 1.6 | 8.0 | 0.00 | 0.00 | 0.00 | 46 | 1010.9 |
| 20260905174026 | 36 | 88 | 0.0 | 6.4 | 0.00 | 0.00 | 0.00 | 45 | 1011.0 |
| 20260905173526 | 36 | 146 | 0.0 | 3.2 | 0.00 | 0.00 | 0.00 | 48 | 1011.1 |
| 20260905173024 | 36 | 134 | 0.0 | 4.8 | 0.00 | 0.00 | 0.00 | 51 | 1011.2 |
| 20260905172525 | 35 | 254 | 1.6 | 9.7 | 0.00 | 0.00 | 0.00 | 49 | 1011.3 |
| 20260905172024 | 36 | 256 | 1.6 | 9.7 | 0.00 | 0.00 | 0.00 | 47 | 1011.3 |
| 20260905171523 | 35 | 122 | 1.6 | 4.8 | 0.00 | 0.00 | 0.00 | 51 | 1011.3 |
| 20260905171023 | 35 | 81 | 1.6 | 11.3 | 0.00 | 0.00 | 0.00 | 50 | 1011.4 |
| 20260905170523 | 35 | 76 | 0.0 | 11.3 | 0.00 | 0.00 | 0.00 | 50 | 1011.6 |
| 20260905170023 | 35 | 142 | 0.0 | 4.8 | 0.00 | 0.00 | 0.00 | 48 | 1011.6 |
| 20260905165523 | 36 | 80 | 1.6 | 6.4 | 0.00 | 0.00 | 0.00 | 49 | 1011.7 |
| 20260905165023 | 36 | 138 | 1.6 | 6.4 | 0.00 | 0.00 | 0.00 | 50 | 1011.7 |
| 20260905164523 | 35 | 96 | 1.6 | 4.8 | 0.00 | 0.00 | 0.00 | 51 | 1011.8 |
| 20260905164025 | 35 | 101 | 1.6 | 4.8 | 0.00 | 0.00 | 0.00 | 50 | 1011.9 |
| 20260905163523 | 35 | 145 | 0.0 | 4.8 | 0.00 | 0.00 | 0.00 | 52 | 1011.9 |
| 20260905163023 | 35 | 140 | 0.0 | 4.8 | 0.00 | 0.00 | 0.00 | 51 | 1012.0 |
| 20260905162521 | 35 | 314 | 1.6 | 4.8 | 0.00 | 0.00 | 0.00 | 51 | 1012.2 |
| 20260905162021 | 35 | 57 | 1.6 | 4.8 | 0.00 | 0.00 | 0.00 | 52 | 1012.2 |
| 20260905161521 | 35 | 291 | 1.6 | 6.4 | 0.00 | 0.00 | 0.00 | 52 | 1012.1 |
| 20260905160022 | 35 | 355 | 0.0 | 3.2 | 0.00 | 0.00 | 0.00 | 51 | 1012.3 |
| 20260905155521 | 35 | 351 | 0.0 | 4.8 | 0.00 | 0.00 | 0.00 | 51 | 1012.3 |
| 20260905154521 | 35 | 105 | 0.0 | 3.2 | 0.00 | 0.00 | 0.00 | 52 | 1012.3 |
| 20260905154021 | 35 | 119 | 0.0 | 4.8 | 0.00 | 0.00 | 0.00 | 53 | 1012.3 |
| 20260905153520 | 35 | 22 | 0.0 | 9.7 | 0.00 | 0.00 | 0.00 | 54 | 1012.4 |
| 20260905152520 | 35 | 313 | 0.0 | 0.0 | 0.00 | 0.00 | 0.00 | 53 | 1012.5 |
| 20260905152020 | 35 | 34 | 0.0 | 0.0 | 0.00 | 0.00 | 0.00 | 55 | 1012.5 |
| 20260905151016 | 34 | 296 | 0.0 | 0.0 | 0.00 | 0.00 | 0.00 | 56 | 1012.5 |
| 20260905150018 | 33 | 298 | 0.0 | 0.0 | 0.00 | 0.00 | 0.00 | 56 | 1012.6 |
| 20260905145518 | 33 | 25 | 0.0 | 0.0 | 0.00 | 0.00 | 0.00 | 57 | 1012.6 |
| 20260905144516 | 33 | 53 | 0.0 | 0.0 | 0.00 | 0.00 | 0.00 | 58 | 1012.7 |
| 20260905144017 | 32 | 53 | 0.0 | 0.0 | 0.00 | 0.00 | 0.00 | 61 | 1012.8 |
| 20260905143518 | 32 | 318 | 0.0 | 0.0 | 0.00 | 0.00 | 0.00 | 62 | 1012.8 |
| 20260905143017 | 32 | 318 | 0.0 | 0.0 | 0.00 | 0.00 | 0.00 | 62 | 1012.8 |
| 20260905142516 | 32 | 318 | 0.0 | 0.0 | 0.00 | 0.00 | 0.00 | 62 | 1012.9 |
| 20260905142016 | 31 | 318 | 0.0 | 0.0 | 0.00 | 0.00 | 0.00 | 64 | 1012.9 |
| 20260905141518 | 31 | 318 | 0.0 | 0.0 | 0.00 | 0.00 | 0.00 | 65 | 1012.8 |
| 20260905141017 | 31 | 321 | 0.0 | 0.0 | 0.00 | 0.00 | 0.00 | 67 | 1012.9 |
| 20260905140015 | 30 | 316 | 0.0 | 0.0 | 0.00 | 0.00 | 0.00 | 70 | 1012.9 |
| 20260905135515 | 30 | 316 | 0.0 | 0.0 | 0.00 | 0.00 | 0.00 | 70 | 1012.9 |
| 20260905135015 | 30 | 317 | 0.0 | 0.0 | 0.00 | 0.00 | 0.00 | 72 | 1012.9 |
| 20260905134514 | 30 | 315 | 0.0 | 0.0 | 0.00 | 0.00 | 0.00 | 73 | 1012.9 |
| 20260905134014 | 30 | 316 | 0.0 | 0.0 | 0.00 | 0.00 | 0.00 | 74 | 1012.9 |
| 20260905133516 | 29 | 317 | 0.0 | 0.0 | 0.00 | 0.00 | 0.00 | 75 | 1013.0 |
| 20260905133015 | 29 | 317 | 0.0 | 0.0 | 0.00 | 0.00 | 0.00 | 75 | 1013.0 |
| 20260905132515 | 28 | 317 | 0.0 | 0.0 | 0.00 | 0.00 | 0.00 | 77 | 1013.1 |
| 20260905132015 | 28 | 317 | 0.0 | 0.0 | 0.00 | 0.00 | 0.00 | 78 | 1013.1 |
| 20260905131016 | 27 | 133 | 0.0 | 0.0 | 0.00 | 0.00 | 0.00 | 80 | 1013.2 |
| 20260905130514 | 27 | 133 | 0.0 | 0.0 | 0.00 | 0.00 | 0.00 | 81 | 1013.2 |
| 20260905130016 | 27 | 132 | 0.0 | 0.0 | 0.00 | 0.00 | 0.00 | 83 | 1013.2 |
| 20260905125014 | 26 | 133 | 0.0 | 0.0 | 0.00 | 0.00 | 0.00 | 88 | 1013.1 |
| 20260905124514 | 25 | 133 | 0.0 | 0.0 | 0.00 | 0.00 | 0.00 | 90 | 1013.1 |
| 20260905124015 | 25 | 133 | 0.0 | 0.0 | 0.00 | 0.00 | 0.00 | 92 | 1013.1 |
| 20260905123512 | 24 | 133 | 0.0 | 0.0 | 0.00 | 0.00 | 0.00 | 94 | 1013.2 |
| 20260905123011 | 23 | 133 | 0.0 | 0.0 | 0.00 | 0.00 | 0.00 | 95 | 1013.1 |
| 20260905122010 | 23 | 133 | 0.0 | 0.0 | 0.00 | 0.00 | 0.00 | 95 | 1013.1 |
| 20260905121510 | 22 | 133 | 0.0 | 0.0 | 0.00 | 0.00 | 0.00 | 95 | 1013.1 |
| 20260905121010 | 22 | 133 | 0.0 | 0.0 | 0.00 | 0.00 | 0.00 | 95 | 1013.0 |
| 20260905120509 | 22 | 133 | 0.0 | 0.0 | 0.00 | 0.00 | 0.00 | 95 | 1012.9 |
| 20260905120008 | 22 | 133 | 0.0 | 0.0 | 0.00 | 0.00 | 0.00 | 94 | 1012.8 |
| 20260905115509 | 22 | 133 | 0.0 | 0.0 | 0.00 | 0.00 | 0.00 | 94 | 1012.8 |
| 20260905115007 | 22 | 133 | 0.0 | 0.0 | 0.00 | 0.00 | 0.00 | 94 | 1012.8 |
| 20260905114506 | 22 | 133 | 0.0 | 0.0 | 0.00 | 0.00 | 0.00 | 95 | 1012.8 |
| 20260905113506 | 22 | 133 | 0.0 | 0.0 | 0.00 | 0.00 | 0.00 | 94 | 1012.8 |
| 20260905113006 | 22 | 133 | 0.0 | 0.0 | 0.00 | 0.00 | 0.00 | 94 | 1012.7 |
| 20260905112507 | 22 | 133 | 0.0 | 0.0 | 0.00 | 0.00 | 0.00 | 95 | 1012.6 |
| 20260905112006 | 22 | 133 | 0.0 | 0.0 | 0.00 | 0.00 | 0.00 | 95 | 1012.6 |
| 20260905111006 | 22 | 133 | 0.0 | 0.0 | 0.00 | 0.00 | 0.00 | 95 | 1012.4 |
| 20260905110506 | 22 | 133 | 0.0 | 0.0 | 0.00 | 0.00 | 0.00 | 94 | 1012.4 |
| 20260905105004 | 22 | 133 | 0.0 | 0.0 | 0.00 | 0.00 | 0.00 | 94 | 1012.3 |
| 20260905104504 | 22 | 133 | 0.0 | 0.0 | 0.00 | 0.00 | 0.00 | 94 | 1012.3 |
| 20260905104004 | 22 | 133 | 0.0 | 0.0 | 0.00 | 0.00 | 0.00 | 94 | 1012.4 |
| 20260905103504 | 22 | 133 | 0.0 | 0.0 | 0.00 | 0.00 | 0.00 | 94 | 1012.3 |
| 20260905103005 | 22 | 133 | 0.0 | 0.0 | 0.00 | 0.00 | 0.00 | 94 | 1012.1 |
| 20260905102003 | 22 | 133 | 0.0 | 0.0 | 0.00 | 0.00 | 0.00 | 94 | 1012.2 |
| 20260905101503 | 22 | 133 | 0.0 | 0.0 | 0.00 | 0.00 | 0.00 | 94 | 1012.1 |
| 20260905101002 | 22 | 133 | 0.0 | 0.0 | 0.00 | 0.00 | 0.00 | 94 | 1012.1 |
| 20260905095502 | 22 | 133 | 0.0 | 0.0 | 0.00 | 0.00 | 0.00 | 93 | 1012.3 |
| 20260905095002 | 22 | 133 | 0.0 | 0.0 | 0.00 | 0.00 | 0.00 | 94 | 1012.2 |
| 20260905094502 | 22 | 133 | 0.0 | 0.0 | 0.00 | 0.00 | 0.00 | 94 | 1012.1 |
| 20260905094002 | 22 | 133 | 0.0 | 0.0 | 0.00 | 0.00 | 0.00 | 94 | 1012.1 |
| 20260905093502 | 22 | 133 | 0.0 | 0.0 | 0.00 | 0.00 | 0.00 | 94 | 1012.1 |
| 20260905093001 | 22 | 133 | 0.0 | 0.0 | 0.00 | 0.00 | 0.00 | 93 | 1012.1 |
| 20260905092502 | 22 | 133 | 0.0 | 0.0 | 0.00 | 0.00 | 0.00 | 93 | 1012.1 |
| 20260905092000 | 22 | 133 | 0.0 | 0.0 | 0.00 | 0.00 | 0.00 | 94 | 1012.1 |
| 20260905091501 | 22 | 133 | 0.0 | 0.0 | 0.00 | 0.00 | 0.00 | 93 | 1012.1 |
| 20260905091000 | 22 | 133 | 0.0 | 0.0 | 0.00 | 0.00 | 0.00 | 93 | 1012.1 |
| 20260905090500 | 22 | 133 | 0.0 | 0.0 | 0.00 | 0.00 | 0.00 | 93 | 1012.1 |
| 20260905090000 | 22 | 133 | 0.0 | 0.0 | 0.00 | 0.00 | 0.00 | 93 | 1012.1 |
| 20260905084958 | 22 | 133 | 0.0 | 0.0 | 0.00 | 0.00 | 0.00 | 93 | 1012.0 |
| 20260905084459 | 22 | 133 | 0.0 | 0.0 | 0.00 | 0.00 | 0.00 | 93 | 1012.0 |
| 20260905083959 | 22 | 133 | 0.0 | 0.0 | 0.00 | 0.00 | 0.00 | 93 | 1012.0 |
| 20260905083458 | 22 | 133 | 0.0 | 0.0 | 0.00 | 0.00 | 0.00 | 93 | 1012.0 |
| 20260905082957 | 22 | 133 | 0.0 | 0.0 | 0.00 | 0.00 | 0.00 | 93 | 1012.1 |
| 20260905082456 | 22 | 133 | 0.0 | 0.0 | 0.00 | 0.00 | 0.00 | 93 | 1012.0 |
| 20260905081953 | 22 | 133 | 0.0 | 0.0 | 0.00 | 0.00 | 0.00 | 93 | 1012.0 |
| 20260905081452 | 22 | 133 | 0.0 | 0.0 | 0.00 | 0.00 | 0.00 | 93 | 1012.0 |
| 20260905080952 | 22 | 133 | 0.0 | 0.0 | 0.00 | 0.00 | 0.00 | 93 | 1011.9 |
| 20260905080452 | 22 | 133 | 0.0 | 0.0 | 0.00 | 0.00 | 0.00 | 93 | 1011.9 |
| 20260905075951 | 22 | 133 | 0.0 | 0.0 | 0.00 | 0.00 | 0.00 | 92 | 1012.0 |
| 20260905074953 | 22 | 133 | 0.0 | 0.0 | 0.00 | 0.00 | 0.00 | 93 | 1011.9 |
| 20260905073951 | 22 | 133 | 0.0 | 0.0 | 0.00 | 0.00 | 0.00 | 93 | 1011.9 |
| 20260905073452 | 22 | 133 | 0.0 | 0.0 | 0.00 | 0.00 | 0.00 | 92 | 1011.7 |
| 20260905072953 | 22 | 133 | 0.0 | 0.0 | 0.00 | 0.00 | 0.00 | 92 | 1011.7 |
| 20260905072453 | 22 | 133 | 0.0 | 0.0 | 0.00 | 0.00 | 0.00 | 92 | 1011.7 |
| 20260905071951 | 22 | 133 | 0.0 | 0.0 | 0.00 | 0.00 | 0.00 | 92 | 1011.7 |
| 20260905071452 | 22 | 133 | 0.0 | 0.0 | 0.00 | 0.00 | 0.00 | 92 | 1011.7 |
| 20260905070952 | 22 | 133 | 0.0 | 0.0 | 0.00 | 0.00 | 0.00 | 92 | 1011.4 |
| 20260905070452 | 22 | 133 | 0.0 | 0.0 | 0.00 | 0.00 | 0.00 | 92 | 1011.6 |
| 20260905065452 | 22 | 133 | 0.0 | 0.0 | 0.00 | 0.00 | 0.00 | 91 | 1011.8 |
| 20260905064452 | 22 | 133 | 0.0 | 0.0 | 0.00 | 0.00 | 0.00 | 91 | 1012.1 |
| 20260905063952 | 22 | 133 | 0.0 | 0.0 | 0.00 | 0.00 | 0.00 | 91 | 1012.2 |
| 20260905063452 | 22 | 133 | 0.0 | 0.0 | 0.00 | 0.00 | 0.00 | 91 | 1012.1 |
| 20260905062952 | 23 | 133 | 0.0 | 0.0 | 0.00 | 0.00 | 0.00 | 91 | 1012.1 |
| 20260905062451 | 23 | 133 | 0.0 | 0.0 | 0.00 | 0.00 | 0.00 | 91 | 1012.2 |
| 20260905061951 | 23 | 133 | 0.0 | 0.0 | 0.00 | 0.00 | 0.00 | 91 | 1012.2 |
| 20260905061449 | 23 | 133 | 0.0 | 0.0 | 0.00 | 0.00 | 0.00 | 90 | 1012.3 |
| 20260905060949 | 23 | 133 | 0.0 | 0.0 | 0.00 | 0.00 | 0.00 | 90 | 1012.3 |
| 20260905060449 | 23 | 133 | 0.0 | 0.0 | 0.00 | 0.00 | 0.00 | 90 | 1012.4 |
| 20260905055950 | 23 | 133 | 0.0 | 0.0 | 0.00 | 0.00 | 0.00 | 90 | 1012.4 |
| 20260905055449 | 23 | 133 | 0.0 | 0.0 | 0.00 | 0.00 | 0.00 | 90 | 1012.5 |
| 20260905054950 | 23 | 133 | 0.0 | 0.0 | 0.00 | 0.00 | 0.00 | 90 | 1012.6 |
| 20260905054450 | 23 | 133 | 0.0 | 0.0 | 0.00 | 0.00 | 0.00 | 89 | 1012.7 |
| 20260905053949 | 23 | 133 | 0.0 | 0.0 | 0.00 | 0.00 | 0.00 | 89 | 1012.7 |
| 20260905053449 | 23 | 133 | 0.0 | 0.0 | 0.00 | 0.00 | 0.00 | 89 | 1012.6 |
| 20260905052949 | 23 | 133 | 0.0 | 0.0 | 0.00 | 0.00 | 0.00 | 89 | 1012.6 |
| 20260905052448 | 23 | 133 | 0.0 | 0.0 | 0.00 | 0.00 | 0.00 | 89 | 1012.6 |
| 20260905051947 | 23 | 133 | 0.0 | 0.0 | 0.00 | 0.00 | 0.00 | 88 | 1012.5 |
| 20260905050446 | 23 | 133 | 0.0 | 0.0 | 0.00 | 0.00 | 0.00 | 88 | 1012.6 |
| 20260905045947 | 23 | 133 | 0.0 | 0.0 | 0.00 | 0.00 | 0.00 | 88 | 1012.7 |
| 20260905045447 | 23 | 133 | 0.0 | 0.0 | 0.00 | 0.00 | 0.00 | 87 | 1012.8 |
| 20260905044447 | 23 | 133 | 0.0 | 0.0 | 0.00 | 0.00 | 0.00 | 87 | 1012.8 |
| 20260905043948 | 23 | 133 | 0.0 | 0.0 | 0.00 | 0.00 | 0.00 | 87 | 1012.8 |
| 20260905043446 | 23 | 133 | 0.0 | 0.0 | 0.00 | 0.00 | 0.00 | 87 | 1012.8 |
| 20260905042946 | 23 | 133 | 0.0 | 0.0 | 0.00 | 0.00 | 0.00 | 86 | 1012.8 |
| 20260905042444 | 23 | 133 | 0.0 | 0.0 | 0.00 | 0.00 | 0.00 | 86 | 1012.7 |
| 20260905041946 | 23 | 133 | 0.0 | 0.0 | 0.00 | 0.00 | 0.00 | 87 | 1012.6 |
| 20260905040946 | 23 | 133 | 0.0 | 0.0 | 0.00 | 0.00 | 0.00 | 87 | 1012.6 |
| 20260905040445 | 23 | 133 | 0.0 | 0.0 | 0.00 | 0.00 | 0.00 | 87 | 1012.6 |
| 20260905035944 | 23 | 133 | 0.0 | 0.0 | 0.00 | 0.00 | 0.00 | 87 | 1012.5 |
| 20260905035444 | 23 | 133 | 0.0 | 0.0 | 0.00 | 0.00 | 0.00 | 87 | 1012.6 |
| 20260905034943 | 23 | 133 | 0.0 | 0.0 | 0.00 | 0.00 | 0.00 | 87 | 1012.5 |
| 20260905034442 | 24 | 133 | 0.0 | 0.0 | 0.00 | 0.00 | 0.00 | 86 | 1012.5 |
| 20260905033943 | 24 | 133 | 0.0 | 0.0 | 0.00 | 0.00 | 0.00 | 86 | 1012.5 |
| 20260905033444 | 24 | 133 | 0.0 | 0.0 | 0.00 | 0.00 | 0.00 | 86 | 1012.5 |
| 20260905032943 | 24 | 133 | 0.0 | 0.0 | 0.00 | 0.00 | 0.00 | 86 | 1012.4 |
| 20260905032442 | 24 | 133 | 0.0 | 0.0 | 0.00 | 0.00 | 0.00 | 85 | 1012.6 |
| 20260905031943 | 24 | 133 | 0.0 | 0.0 | 0.00 | 0.00 | 0.00 | 85 | 1012.6 |
| 20260905031443 | 24 | 133 | 0.0 | 0.0 | 0.00 | 0.00 | 0.00 | 85 | 1012.7 |
| 20260905030943 | 24 | 133 | 0.0 | 0.0 | 0.00 | 0.00 | 0.00 | 85 | 1012.9 |
| 20260905025943 | 25 | 133 | 0.0 | 0.0 | 0.00 | 0.00 | 0.00 | 85 | 1012.9 |
| 20260905025443 | 25 | 133 | 0.0 | 0.0 | 0.00 | 0.00 | 0.00 | 84 | 1013.0 |
| 20260905024441 | 25 | 133 | 0.0 | 0.0 | 0.00 | 0.00 | 0.00 | 84 | 1013.1 |
| 20260905023940 | 25 | 133 | 0.0 | 0.0 | 0.00 | 0.00 | 0.00 | 84 | 1013.2 |
| 20260905023441 | 25 | 133 | 0.0 | 0.0 | 0.00 | 0.00 | 0.00 | 84 | 1013.2 |
| 20260905022942 | 25 | 133 | 0.0 | 0.0 | 0.00 | 0.00 | 0.00 | 83 | 1013.3 |
| 20260905021938 | 25 | 133 | 0.0 | 0.0 | 0.00 | 0.00 | 0.00 | 83 | 1013.4 |
| 20260905021438 | 25 | 133 | 0.0 | 0.0 | 0.00 | 0.00 | 0.00 | 83 | 1013.4 |
| 20260905020938 | 25 | 133 | 0.0 | 0.0 | 0.00 | 0.00 | 0.00 | 82 | 1013.4 |
| 20260905015939 | 25 | 133 | 0.0 | 0.0 | 0.00 | 0.00 | 0.00 | 82 | 1013.4 |
| 20260905015438 | 25 | 133 | 0.0 | 0.0 | 0.00 | 0.00 | 0.00 | 82 | 1013.4 |
| 20260905014437 | 26 | 133 | 0.0 | 0.0 | 0.00 | 0.00 | 0.00 | 80 | 1013.4 |
| 20260905013936 | 26 | 133 | 0.0 | 0.0 | 0.00 | 0.00 | 0.00 | 80 | 1013.4 |
| 20260905013437 | 26 | 133 | 0.0 | 0.0 | 0.00 | 0.00 | 0.00 | 80 | 1013.4 |
| 20260905012938 | 26 | 133 | 0.0 | 0.0 | 0.00 | 0.00 | 0.00 | 80 | 1013.3 |
| 20260905012437 | 26 | 133 | 0.0 | 0.0 | 0.00 | 0.00 | 0.00 | 79 | 1013.2 |
| 20260905011937 | 26 | 133 | 0.0 | 0.0 | 0.00 | 0.00 | 0.00 | 78 | 1013.1 |
| 20260905011436 | 26 | 133 | 0.0 | 0.0 | 0.00 | 0.00 | 0.00 | 78 | 1013.2 |
| 20260905010934 | 26 | 133 | 0.0 | 0.0 | 0.00 | 0.00 | 0.00 | 77 | 1013.1 |
| 20260905010434 | 26 | 133 | 0.0 | 0.0 | 0.00 | 0.00 | 0.00 | 76 | 1013.0 |
| 20260905005934 | 27 | 133 | 0.0 | 0.0 | 0.00 | 0.00 | 0.00 | 76 | 1012.9 |
| 20260905005434 | 27 | 133 | 0.0 | 0.0 | 0.00 | 0.00 | 0.00 | 75 | 1012.8 |
| 20260905004935 | 27 | 133 | 0.0 | 0.0 | 0.00 | 0.00 | 0.00 | 75 | 1012.7 |
| 20260905004435 | 27 | 133 | 0.0 | 0.0 | 0.00 | 0.00 | 0.00 | 74 | 1012.7 |
| 20260905003934 | 27 | 133 | 0.0 | 0.0 | 0.00 | 0.00 | 0.00 | 73 | 1012.6 |
| 20260905003434 | 28 | 133 | 0.0 | 0.0 | 0.00 | 0.00 | 0.00 | 72 | 1012.6 |
| 20260905002934 | 28 | 133 | 0.0 | 0.0 | 0.00 | 0.00 | 0.00 | 71 | 1012.6 |
| 20260905002434 | 28 | 133 | 0.0 | 0.0 | 0.00 | 0.00 | 0.00 | 71 | 1012.6 |
| 20260905001932 | 28 | 133 | 0.0 | 0.0 | 0.00 | 0.00 | 0.00 | 70 | 1012.5 |
| 20260905000932 | 29 | 133 | 0.0 | 0.0 | 0.00 | 0.00 | 0.00 | 67 | 1012.4 |
| 20260905000433 | 30 | 133 | 0.0 | 0.0 | 0.00 | 0.00 | 0.00 | 66 | 1012.3 |
| 20260904235433 | 30 | 133 | 0.0 | 0.0 | 0.00 | 0.00 | 0.00 | 63 | 1012.3 |
| 20260904234932 | 31 | 133 | 0.0 | 0.0 | 0.00 | 0.00 | 0.00 | 62 | 1012.2 |
| 20260904234432 | 31 | 133 | 0.0 | 0.0 | 0.00 | 0.00 | 0.00 | 61 | 1012.2 |
| 20260904233932 | 32 | 133 | 0.0 | 0.0 | 0.00 | 0.00 | 0.00 | 59 | 1012.2 |
| 20260904233433 | 33 | 133 | 0.0 | 0.0 | 0.00 | 0.00 | 0.00 | 56 | 1012.1 |